Time;durP1;ratioP1;P1;durP2;ratioP2;P2;SDS_P1;SDS_P2;PMS_P1;PMS_P2;Temp;Humidity;BMP_temperature;BMP_pressure;BME280_temperature;BME280_humidity;BME280_pressure;Samples;Min_cycle;Max_cycle;Signal;HPM_P1;HPM_P2
2023/08/18 00:08:09;;;;;;;3.50;2.33;;;;;;;19.36;100.00;97712.25;18230129;32;20055;-57
2023/08/18 00:18:12;;;;;;;3.10;2.20;;;;;;;19.26;100.00;97711.47;18229770;32;20092;-56
2023/08/18 00:28:14;;;;;;;5.87;2.58;;;;;;;19.10;100.00;97707.63;18230753;32;20068;-57
2023/08/18 00:38:17;;;;;;;3.77;2.00;;;;;;;18.98;100.00;97704.75;18229010;32;20089;-57
2023/08/18 00:48:19;;;;;;;4.40;2.20;;;;;;;18.88;100.00;97700.41;18229676;32;20083;-57
2023/08/18 00:58:23;;;;;;;2.83;2.23;;;;;;;18.76;100.00;97693.63;18229211;32;20080;-56
2023/08/18 01:08:25;;;;;;;;;;;;;;;18.64;100.00;97679.78;18230714;32;20088;-56
2023/08/18 01:18:29;;;;;;;3.80;1.65;;;;;;;18.54;100.00;97686.38;18239220;32;19954;-56
2023/08/18 01:28:33;;;;;;;;;;;;;;;18.42;100.00;97678.00;18237401;32;20167;-57
2023/08/18 01:38:37;;;;;;;2.47;2.07;;;;;;;18.28;100.00;97672.66;18238270;32;19972;-57
2023/08/18 01:48:40;;;;;;;4.12;2.53;;;;;;;18.17;100.00;97674.94;18211006;32;20087;-57
2023/08/18 01:58:42;;;;;;;3.90;2.17;;;;;;;18.08;100.00;97668.63;18235796;32;20050;-57
2023/08/18 02:08:45;;;;;;;5.40;1.93;;;;;;;17.91;100.00;97656.53;18236838;32;20079;-56
2023/08/18 02:18:47;;;;;;;3.90;1.83;;;;;;;17.87;100.00;97652.78;18234791;32;20067;-56
2023/08/18 02:28:50;;;;;;;3.72;2.00;;;;;;;17.73;100.00;97655.66;18235800;32;20110;-56
2023/08/18 02:38:52;;;;;;;4.75;2.20;;;;;;;17.68;100.00;97660.44;18234438;32;20058;-57
2023/08/18 02:48:54;;;;;;;4.32;2.33;;;;;;;17.69;100.00;97653.84;18234043;32;20396;-57
2023/08/18 02:58:57;;;;;;;3.25;2.40;;;;;;;17.66;100.00;97662.69;18234509;32;20456;-57
2023/08/18 03:08:59;;;;;;;3.70;2.17;;;;;;;17.65;100.00;97658.34;18232855;32;20049;-56
2023/08/18 03:19:02;;;;;;;4.73;2.40;;;;;;;17.59;100.00;97663.16;18233622;32;20062;-57
2023/08/18 03:29:05;;;;;;;5.33;2.37;;;;;;;17.45;100.00;97644.94;18231919;32;20374;-56
2023/08/18 03:39:07;;;;;;;4.03;2.25;;;;;;;17.31;100.00;97648.88;18232254;32;20131;-55
2023/08/18 03:49:10;;;;;;;4.33;2.20;;;;;;;17.24;100.00;97652.09;18218913;32;20088;-56
2023/08/18 03:59:13;;;;;;;5.03;2.50;;;;;;;17.12;100.00;97639.00;18230472;32;20066;-55
2023/08/18 04:09:16;;;;;;;5.00;2.03;;;;;;;17.02;100.00;97637.34;18231477;32;20411;-56
2023/08/18 04:19:18;;;;;;;6.55;2.35;;;;;;;16.94;100.00;97640.84;18229811;32;20354;-55
2023/08/18 04:29:22;;;;;;;3.57;1.60;;;;;;;16.86;100.00;97639.63;18230570;32;20055;-56
2023/08/18 04:39:24;;;;;;;4.70;2.00;;;;;;;16.77;100.00;97636.03;18229121;32;20078;-57
2023/08/18 04:49:27;;;;;;;4.03;2.33;;;;;;;16.68;100.00;97649.62;18238281;32;20421;-56
2023/08/18 04:59:30;;;;;;;3.25;2.03;;;;;;;16.66;100.00;97664.72;18239608;32;20062;-57
2023/08/18 05:09:34;;;;;;;3.53;1.90;;;;;;;16.60;100.00;97667.56;18238694;32;20073;-57
2023/08/18 05:19:36;;;;;;;2.90;1.77;;;;;;;16.57;100.00;97673.63;18239073;32;20056;-57
2023/08/18 05:29:39;;;;;;;3.70;2.17;;;;;;;16.65;100.00;97668.53;18238398;32;20102;-57
2023/08/18 05:39:43;;;;;;;5.82;2.00;;;;;;;16.83;100.00;97664.84;18238118;32;20100;-57
2023/08/18 05:49:52;;;;;;;2.85;1.95;;;;;;;17.04;100.00;97670.59;18237727;32;20379;-57
2023/08/18 05:59:56;;;;;;;3.28;1.87;;;;;;;17.27;100.00;97679.56;18236382;32;20050;-57
2023/08/18 06:09:59;;;;;;;4.63;2.57;;;;;;;17.53;100.00;97681.63;18236702;32;20093;-57
2023/08/18 06:20:02;;;;;;;3.20;2.13;;;;;;;17.85;100.00;97687.84;18222781;32;20054;-57
2023/08/18 06:30:06;;;;;;;2.75;1.80;;;;;;;18.22;100.00;97698.59;18235118;32;20411;-57
2023/08/18 06:40:25;;;;;;;3.03;1.95;;;;;;;18.68;100.00;97704.56;18235235;32;20081;-57
2023/08/18 06:51:09;;;;;;;3.67;1.83;;;;;;;19.16;100.00;97698.13;18235003;32;20059;-57
2023/08/18 07:01:18;;;;;;;2.45;1.67;;;;;;;19.73;100.00;97696.94;18234408;32;20110;-57
2023/08/18 07:11:23;;;;;;;3.97;1.52;;;;;;;20.25;100.00;97706.84;18232301;32;20055;-57
2023/08/18 07:21:27;;;;;;;3.00;1.85;;;;;;;20.68;100.00;97690.41;18233510;32;20503;-57
2023/08/18 07:31:33;;;;;;;2.37;1.40;;;;;;;21.19;100.00;97710.34;18232982;32;20072;-57
2023/08/18 07:41:41;;;;;;;2.20;1.40;;;;;;;21.66;100.00;97712.75;18231121;32;20363;-57
2023/08/18 07:51:47;;;;;;;3.65;1.58;;;;;;;22.06;100.00;97722.28;18231780;32;20095;-56
2023/08/18 08:01:51;;;;;;;3.22;2.03;;;;;;;22.46;100.00;97745.56;18231949;32;20054;-57
2023/08/18 08:11:54;;;;;;;3.08;1.62;;;;;;;22.89;100.00;97733.06;18231382;32;20054;-57
2023/08/18 08:21:58;;;;;;;4.12;1.80;;;;;;;23.32;100.00;97742.56;18237090;32;20093;-57
2023/08/18 08:32:13;;;;;;;5.15;2.12;;;;;;;23.79;100.00;97745.72;18240078;32;20332;-57
2023/08/18 08:42:23;;;;;;;4.37;2.42;;;;;;;24.21;100.00;97747.19;18240546;32;20104;-57
2023/08/18 08:52:31;;;;;;;3.22;1.90;;;;;;;24.63;100.00;97755.66;18240069;32;20046;-57
2023/08/18 09:02:37;;;;;;;5.28;2.47;;;;;;;25.02;100.00;97757.66;18226664;32;20073;-57
2023/08/18 09:12:42;;;;;;;5.65;2.03;;;;;;;25.45;100.00;97760.50;18239838;32;20054;-57
2023/08/18 09:22:46;;;;;;;6.75;2.05;;;;;;;25.86;100.00;97749.78;18238011;32;20055;-57
2023/08/18 09:32:50;;;;;;;8.02;2.53;;;;;;;26.26;96.58;97748.47;18236325;32;20113;-57
2023/08/18 09:42:54;;;;;;;3.85;2.17;;;;;;;26.66;96.34;97749.03;18236928;32;20062;-57
2023/08/18 09:52:58;;;;;;;4.75;2.42;;;;;;;26.95;96.24;97732.78;18236342;32;20038;-57
2023/08/18 10:03:05;;;;;;;4.32;2.53;;;;;;;27.28;91.39;97736.72;18237150;32;20433;-57
2023/08/18 10:13:09;;;;;;;3.78;2.80;;;;;;;27.61;90.96;97724.78;18236867;32;20347;-57
2023/08/18 10:23:12;;;;;;;4.62;2.55;;;;;;;28.02;86.10;97715.66;18235023;32;20051;-57
2023/08/18 10:33:29;;;;;;;4.50;2.90;;;;;;;28.39;76.41;97718.31;18235659;32;20055;-57
2023/08/18 10:43:42;;;;;;;3.33;2.95;;;;;;;28.67;69.46;97700.19;18235758;32;20080;-57
2023/08/18 10:53:50;;;;;;;3.75;2.80;;;;;;;29.12;68.83;97694.41;18235198;32;20411;-57
2023/08/18 11:03:57;;;;;;;4.57;2.62;;;;;;;29.46;65.96;97687.72;18234652;32;20477;-57
2023/08/18 11:14:01;;;;;;;4.18;2.90;;;;;;;29.83;64.38;97689.34;18220553;32;20327;-57
2023/08/18 11:24:05;;;;;;;2.60;2.28;;;;;;;30.14;60.87;97676.59;18232316;32;20050;-57
2023/08/18 11:34:08;;;;;;;3.60;2.80;;;;;;;30.45;52.99;97667.78;18232115;32;20456;-57
2023/08/18 11:44:12;;;;;;;2.67;2.47;;;;;;;30.66;50.73;97667.72;18232607;32;20047;-57
2023/08/18 11:54:16;;;;;;;2.55;2.17;;;;;;;31.00;49.06;97661.59;18231379;32;20046;-57
2023/08/18 12:04:29;;;;;;;4.82;2.65;;;;;;;31.16;48.67;97655.53;18231886;32;20081;-57
2023/08/18 12:14:32;;;;;;;4.12;2.35;;;;;;;31.44;48.94;97645.37;18231226;32;20058;-57
2023/08/18 12:24:36;;;;;;;3.65;2.50;;;;;;;31.68;53.96;97643.59;18230813;32;20109;-57
2023/08/18 12:34:39;;;;;;;4.37;2.58;;;;;;;32.15;48.06;97617.22;18229675;32;20168;-57
2023/08/18 12:44:43;;;;;;;3.70;2.87;;;;;;;32.47;47.97;97611.25;18228964;32;20086;-57
2023/08/18 12:54:46;;;;;;;4.12;2.92;;;;;;;32.72;49.28;97610.19;18229452;32;20054;-57
2023/08/18 13:04:50;;;;;;;3.67;2.58;;;;;;;32.96;45.99;97607.44;18232180;32;20418;-57
2023/08/18 13:14:53;;;;;;;5.70;3.08;;;;;;;33.57;46.89;97618.53;18238936;32;20126;-57
2023/08/18 13:25:08;;;;;;;4.60;3.00;;;;;;;34.30;45.57;97617.28;18238844;32;20055;-57
2023/08/18 13:35:12;;;;;;;6.05;3.40;;;;;;;34.71;45.00;97605.59;18238569;32;20077;-57
2023/08/18 13:45:15;;;;;;;3.05;2.70;;;;;;;34.89;40.31;97598.84;18237958;32;20054;-57
2023/08/18 13:55:20;;;;;;;4.00;3.50;;;;;;;35.56;44.88;97586.44;18236217;32;20062;-57
2023/08/18 14:05:23;;;;;;;3.75;2.92;;;;;;;35.80;41.14;97593.44;18236076;32;20114;-57
2023/08/18 14:15:27;;;;;;;7.97;2.97;;;;;;;35.89;38.43;97587.22;18236201;32;20066;-57
2023/08/18 14:25:30;;;;;;;4.90;2.72;;;;;;;36.11;42.18;97575.34;18236233;32;20055;-57
2023/08/18 14:35:36;;;;;;;3.67;2.83;;;;;;;36.33;34.63;97583.22;18236107;32;20359;-57
2023/08/18 14:45:39;;;;;;;4.30;3.05;;;;;;;36.65;35.75;97573.84;18235450;32;20481;-57
2023/08/18 14:55:43;;;;;;;3.87;2.70;;;;;;;36.94;33.07;97565.31;18234665;32;20060;-57
2023/08/18 15:05:47;;;;;;;3.65;2.03;;;;;;;36.13;32.67;97553.19;18234428;32;20062;-57
2023/08/18 15:15:52;;;;;;;4.65;2.30;;;;;;;35.39;32.82;97543.50;18234091;32;20421;-49
2023/08/18 15:25:57;;;;;;;2.60;2.20;;;;;;;34.63;31.83;97533.97;18233327;32;20454;-57
2023/08/18 15:36:05;;;;;;;3.40;2.10;;;;;;;33.96;32.80;97526.56;18231963;32;20487;-57
2023/08/18 15:46:08;;;;;;;6.03;2.55;;;;;;;33.43;32.62;97509.47;18232907;32;20110;-56
2023/08/18 15:56:15;;;;;;;3.33;2.25;;;;;;;33.09;34.78;97511.19;18231824;32;20046;-56
2023/08/18 16:06:18;;;;;;;4.57;2.20;;;;;;;32.67;33.94;97493.84;18231976;32;20375;-56
2023/08/18 16:16:21;;;;;;;1.90;1.70;;;;;;;32.61;34.20;97475.94;18230251;32;20054;-57
2023/08/18 16:26:25;;;;;;;3.75;1.83;;;;;;;32.43;33.32;97471.37;18230233;32;20054;-55
2023/08/18 16:36:30;;;;;;;2.97;1.90;;;;;;;32.14;33.21;97464.56;18229416;32;20366;-56
2023/08/18 16:46:35;;;;;;;4.90;2.05;;;;;;;32.07;34.02;97460.66;18239835;32;20077;-56
2023/08/18 16:56:38;;;;;;;2.20;1.67;;;;;;;32.06;34.82;97470.25;18238733;32;20050;-57
2023/08/18 17:06:41;;;;;;;3.42;1.70;;;;;;;32.88;35.22;97486.37;18238693;32;20418;-55
2023/08/18 17:16:47;;;;;;;2.37;1.50;;;;;;;31.40;38.30;97479.78;18238138;32;20063;-55
2023/08/18 17:26:50;;;;;;;4.90;1.95;;;;;;;30.21;41.32;97477.81;18239174;32;20526;-55
2023/08/18 17:36:53;;;;;;;3.22;1.55;;;;;;;29.40;46.05;97478.44;18238303;32;20066;-57
2023/08/18 17:46:59;;;;;;;3.45;2.00;;;;;;;28.67;50.21;97477.63;18237808;32;20456;-56
2023/08/18 17:57:03;;;;;;;2.22;1.60;;;;;;;28.02;56.85;97483.00;18236604;32;20410;-55
2023/08/18 18:07:06;;;;;;;4.45;1.58;;;;;;;27.37;62.29;97479.06;18237159;32;20397;-55
2023/08/18 18:17:10;;;;;;;2.42;1.65;;;;;;;26.73;64.92;97493.19;18235482;32;20050;-55
2023/08/18 18:27:14;;;;;;;4.18;2.40;;;;;;;26.18;70.81;97511.19;18235089;32;20401;-55
2023/08/18 18:37:17;;;;;;;2.70;2.12;;;;;;;25.68;80.98;97511.31;18235751;32;20066;-54
2023/08/18 18:47:21;;;;;;;3.20;2.53;;;;;;;25.19;87.10;97504.66;18234282;32;20106;-55
2023/08/18 18:57:24;;;;;;;3.70;2.00;;;;;;;24.73;92.20;97493.59;18234774;32;20366;-55
2023/08/18 19:07:27;;;;;;;2.20;1.87;;;;;;;24.30;93.03;97491.63;18234806;32;20087;-54
2023/08/18 19:17:30;;;;;;;3.58;1.90;;;;;;;23.93;97.62;97513.38;18232876;32;20050;-54
2023/08/18 19:27:33;;;;;;;5.87;2.30;;;;;;;23.57;100.00;97513.38;18232695;32;20055;-54
2023/08/18 19:37:37;;;;;;;3.03;1.70;;;;;;;23.25;100.00;97518.94;18233058;32;20046;-54
2023/08/18 19:47:40;;;;;;;6.97;2.55;;;;;;;22.98;100.00;97520.59;18232667;32;20080;-52
2023/08/18 19:57:44;;;;;;;2.95;2.22;;;;;;;22.72;100.00;97523.87;18231969;32;20099;-54
2023/08/18 20:07:47;;;;;;;5.15;2.05;;;;;;;22.48;100.00;97525.63;18232123;32;20054;-54
2023/08/18 20:17:51;;;;;;;3.67;2.20;;;;;;;22.24;100.00;97527.31;18236103;32;20062;-54
2023/08/18 20:27:54;;;;;;;6.22;2.62;;;;;;;22.09;100.00;97525.28;18240109;32;20089;-54
2023/08/18 20:37:57;;;;;;;;;;;;;;;21.93;100.00;97528.00;18241371;32;20059;-52
2023/08/18 20:48:00;;;;;;;9.43;5.13;;;;;;;21.73;100.00;97538.00;18240986;32;19950;-55
2023/08/18 20:58:03;;;;;;;6.95;5.18;;;;;;;21.55;100.00;97557.53;18238893;32;20058;-52
2023/08/18 21:08:06;;;;;;;4.37;3.40;;;;;;;21.35;100.00;97555.66;18239774;32;20142;-53
2023/08/18 21:18:09;;;;;;;;;;;;;;;21.20;100.00;97557.16;18239671;32;20059;-53
2023/08/18 21:28:12;;;;;;;3.35;2.95;;;;;;;21.06;100.00;97560.22;18238096;32;19973;-53
2023/08/18 21:38:14;;;;;;;10.65;6.00;;;;;;;20.87;100.00;97577.25;18237194;32;20058;-51
2023/08/18 21:48:17;;;;;;;5.55;4.57;;;;;;;20.74;100.00;97576.44;18238111;32;20069;-52
2023/08/18 21:58:20;;;;;;;4.37;3.47;;;;;;;20.60;100.00;97579.47;18235957;32;20058;-53
2023/08/18 22:08:22;;;;;;;4.93;3.42;;;;;;;20.47;100.00;97586.84;18237294;32;20051;-50
2023/08/18 22:18:25;;;;;;;5.35;3.10;;;;;;;20.33;100.00;97580.84;18234671;32;20107;-53
2023/08/18 22:28:28;;;;;;;4.45;2.50;;;;;;;20.18;100.00;97593.25;18235630;32;20055;-53
2023/08/18 22:38:31;;;;;;;5.07;2.70;;;;;;;20.03;100.00;97608.37;18235646;32;20082;-53
2023/08/18 22:48:34;;;;;;;6.10;2.50;;;;;;;19.87;100.00;97597.16;18235855;32;20051;-53
2023/08/18 22:58:37;;;;;;;4.53;2.60;;;;;;;19.71;100.00;97600.47;18235175;32;20063;-53
2023/08/18 23:08:40;;;;;;;3.50;1.87;;;;;;;19.59;100.00;97597.63;18233571;32;20397;-53
2023/08/18 23:18:44;;;;;;;6.10;2.67;;;;;;;19.43;100.00;97587.25;18232896;32;20050;-50
2023/08/18 23:28:47;;;;;;;4.00;2.78;;;;;;;19.30;100.00;97589.06;18234442;32;20055;-52
2023/08/18 23:38:50;;;;;;;7.75;2.62;;;;;;;19.21;100.00;97592.97;18233641;32;20059;-49
2023/08/18 23:48:52;;;;;;;4.63;2.10;;;;;;;19.08;100.00;97589.31;18230838;32;20073;-53
2023/08/18 23:58:55;;;;;;;5.03;3.08;;;;;;;18.98;100.00;97590.50;18230848;32;20109;-52
